LVKFQ MYEN-MYNN
Flight info
| Callsign | LVKFQ |
|---|---|
| Flight time | 0h 18m |
| Altitude | 12000 |
| Route | LEPAS A555 ZQA |
| Aircraft | CL60/M-SBDE1E2E3FGHIJ4J5J7M3RWXYZ/LB1V1D1 |
Departure
| Time | 2026-04-21 01:22 |
|---|---|
| Airport | Normans Cay Airport (MYEN) |
Arrival
| Time | 2026-04-21 01:41 |
|---|---|
| Airport | Lynden Pindling International Airport (MYNN) |
| Time | Latitude | Longitude | Altitude | Speed | Heading |
|---|---|---|---|---|---|
| 2026-04-21 01:22 | 24.66780 | -76.88251 | 8114 ft | 261 kts | 304° |
| 2026-04-21 01:22 | 24.67743 | -76.89902 | 9526 ft | 265 kts | 304° |
| 2026-04-21 01:22 | 24.68735 | -76.91605 | 10793 ft | 272 kts | 303° |
| 2026-04-21 01:23 | 24.69768 | -76.93383 | 11508 ft | 278 kts | 303° |
| 2026-04-21 01:23 | 24.70805 | -76.95171 | 11843 ft | 278 kts | 302° |
| 2026-04-21 01:23 | 24.71842 | -76.96963 | 11966 ft | 275 kts | 302° |
| 2026-04-21 01:23 | 24.72865 | -76.98732 | 11981 ft | 272 kts | 302° |
| 2026-04-21 01:24 | 24.73888 | -77.00491 | 11978 ft | 271 kts | 303° |
| 2026-04-21 01:24 | 24.74980 | -77.02198 | 11975 ft | 270 kts | 306° |
| 2026-04-21 01:24 | 24.76085 | -77.03885 | 11975 ft | 270 kts | 306° |
| 2026-04-21 01:24 | 24.77189 | -77.05573 | 11978 ft | 269 kts | 306° |
| 2026-04-21 01:25 | 24.78288 | -77.07256 | 11975 ft | 270 kts | 306° |
| 2026-04-21 01:25 | 24.79395 | -77.08951 | 11978 ft | 270 kts | 306° |
| 2026-04-21 01:25 | 24.80498 | -77.10641 | 11973 ft | 270 kts | 306° |
| 2026-04-21 01:25 | 24.81606 | -77.12339 | 11974 ft | 270 kts | 306° |
| 2026-04-21 01:26 | 24.82749 | -77.14092 | 11971 ft | 295 kts | 306° |
| 2026-04-21 01:26 | 24.83998 | -77.16007 | 11965 ft | 319 kts | 306° |
| 2026-04-21 01:26 | 24.85335 | -77.18056 | 11970 ft | 325 kts | 306° |
| 2026-04-21 01:26 | 24.86645 | -77.20066 | 11992 ft | 325 kts | 306° |
| 2026-04-21 01:27 | 24.87974 | -77.22106 | 12000 ft | 326 kts | 306° |
| 2026-04-21 01:27 | 24.89296 | -77.24139 | 12008 ft | 325 kts | 306° |
| 2026-04-21 01:27 | 24.90632 | -77.26192 | 12017 ft | 327 kts | 306° |
| 2026-04-21 01:27 | 24.91972 | -77.28253 | 11989 ft | 326 kts | 305° |
| 2026-04-21 01:28 | 24.93263 | -77.30239 | 11998 ft | 305 kts | 306° |
| 2026-04-21 01:28 | 24.94469 | -77.32099 | 11989 ft | 286 kts | 305° |
| 2026-04-21 01:28 | 24.95611 | -77.33862 | 12026 ft | 267 kts | 305° |
| 2026-04-21 01:28 | 24.96701 | -77.35551 | 12018 ft | 266 kts | 305° |
| 2026-04-21 01:29 | 24.97774 | -77.37226 | 12010 ft | 265 kts | 305° |
| 2026-04-21 01:29 | 24.98847 | -77.38909 | 12010 ft | 265 kts | 305° |
| 2026-04-21 01:29 | 24.99905 | -77.40580 | 12000 ft | 266 kts | 304° |
| 2026-04-21 01:29 | 25.00980 | -77.42287 | 11725 ft | 269 kts | 304° |
| 2026-04-21 01:30 | 25.02049 | -77.43996 | 11352 ft | 268 kts | 304° |
| 2026-04-21 01:30 | 25.03108 | -77.45699 | 11019 ft | 264 kts | 304° |
| 2026-04-21 01:30 | 25.04143 | -77.47376 | 10845 ft | 255 kts | 304° |
| 2026-04-21 01:30 | 25.05162 | -77.49040 | 10874 ft | 258 kts | 304° |
| 2026-04-21 01:31 | 25.06170 | -77.50693 | 10864 ft | 265 kts | 304° |
| 2026-04-21 01:31 | 25.07214 | -77.52419 | 10682 ft | 262 kts | 304° |
| 2026-04-21 01:31 | 25.08220 | -77.54096 | 10583 ft | 262 kts | 304° |
| 2026-04-21 01:31 | 25.09235 | -77.55799 | 10457 ft | 262 kts | 304° |
| 2026-04-21 01:32 | 25.10269 | -77.57481 | 10325 ft | 261 kts | 310° |
| 2026-04-21 01:32 | 25.11673 | -77.58749 | 10160 ft | 260 kts | 333° |
| 2026-04-21 01:32 | 25.13436 | -77.59295 | 9991 ft | 261 kts | 356° |
| 2026-04-21 01:32 | 25.15252 | -77.59016 | 9801 ft | 264 kts | 19° |
| 2026-04-21 01:33 | 25.16806 | -77.57963 | 9454 ft | 268 kts | 44° |
| 2026-04-21 01:33 | 25.18031 | -77.56408 | 9100 ft | 266 kts | 49° |
| 2026-04-21 01:33 | 25.19221 | -77.54837 | 8747 ft | 264 kts | 49° |
| 2026-04-21 01:33 | 25.20412 | -77.53271 | 8393 ft | 261 kts | 49° |
| 2026-04-21 01:34 | 25.21602 | -77.51762 | 7818 ft | 268 kts | 43° |
| 2026-04-21 01:34 | 25.23314 | -77.50762 | 6559 ft | 292 kts | 8° |
| 2026-04-21 01:34 | 25.25291 | -77.51082 | 6165 ft | 285 kts | 337° |
| 2026-04-21 01:34 | 25.26741 | -77.52494 | 5873 ft | 277 kts | 302° |
| 2026-04-21 01:35 | 25.27223 | -77.54501 | 5583 ft | 272 kts | 269° |
| 2026-04-21 01:35 | 25.26603 | -77.56462 | 5213 ft | 270 kts | 236° |
| 2026-04-21 01:35 | 25.25443 | -77.58055 | 4900 ft | 264 kts | 231° |
| 2026-04-21 01:35 | 25.24229 | -77.59579 | 4585 ft | 259 kts | 229° |
| 2026-04-21 01:36 | 25.22966 | -77.61000 | 4317 ft | 253 kts | 220° |
| 2026-04-21 01:36 | 25.21371 | -77.61768 | 4114 ft | 249 kts | 183° |
| 2026-04-21 01:36 | 25.19631 | -77.61498 | 3866 ft | 251 kts | 165° |
| 2026-04-21 01:36 | 25.17930 | -77.61026 | 3503 ft | 249 kts | 163° |
| 2026-04-21 01:37 | 25.16445 | -77.60142 | 3172 ft | 241 kts | 135° |
| 2026-04-21 01:37 | 25.15268 | -77.58819 | 2846 ft | 235 kts | 132° |
| 2026-04-21 01:37 | 25.14170 | -77.57577 | 2469 ft | 213 kts | 132° |
| 2026-04-21 01:37 | 25.13178 | -77.56506 | 2201 ft | 186 kts | 135° |
| 2026-04-21 01:38 | 25.12316 | -77.55535 | 1933 ft | 165 kts | 130° |
| 2026-04-21 01:38 | 25.11580 | -77.54697 | 1758 ft | 140 kts | 131° |
| 2026-04-21 01:38 | 25.10898 | -77.53931 | 1575 ft | 138 kts | 130° |
| 2026-04-21 01:38 | 25.10218 | -77.53170 | 1392 ft | 135 kts | 131° |
| 2026-04-21 01:39 | 25.09546 | -77.52421 | 1215 ft | 135 kts | 131° |
| 2026-04-21 01:39 | 25.08882 | -77.51682 | 1044 ft | 134 kts | 131° |
| 2026-04-21 01:39 | 25.08211 | -77.50937 | 876 ft | 133 kts | 132° |
| 2026-04-21 01:39 | 25.07561 | -77.50216 | 703 ft | 127 kts | 131° |
| 2026-04-21 01:40 | 25.06935 | -77.49518 | 544 ft | 124 kts | 131° |
| 2026-04-21 01:40 | 25.06315 | -77.48826 | 365 ft | 125 kts | 131° |
| 2026-04-21 01:40 | 25.05701 | -77.48138 | 188 ft | 126 kts | 130° |
| 2026-04-21 01:40 | 25.05085 | -77.47447 | 40 ft | 123 kts | 131° |
| 2026-04-21 01:41 | 25.04513 | -77.46816 | 24 ft | 102 kts | 133° |
| 2026-04-21 01:41 | 25.04209 | -77.46476 | 24 ft | 32 kts | 130° |
| 2026-04-21 01:41 | 25.04123 | -77.46291 | 23 ft | 22 kts | 109° |
| 2026-04-21 01:41 | 25.04115 | -77.46262 | 23 ft | 0 kts | 108° |
| 2026-04-21 01:42 | 25.04112 | -77.46252 | 23 ft | 3 kts | 108° |
| 2026-04-21 01:42 | 25.04108 | -77.46207 | 23 ft | 8 kts | 75° |
| 2026-04-21 01:42 | 25.04156 | -77.46167 | 23 ft | 10 kts | 342° |
| 2026-04-21 01:42 | 25.04209 | -77.46227 | 23 ft | 12 kts | 321° |
| 2026-04-21 01:43 | 25.04283 | -77.46307 | 23 ft | 17 kts | 314° |
| 2026-04-21 01:43 | 25.04362 | -77.46394 | 23 ft | 13 kts | 315° |
| 2026-04-21 01:43 | 25.04421 | -77.46464 | 23 ft | 3 kts | 315° |
| 2026-04-21 01:43 | 25.04432 | -77.46469 | 23 ft | 4 kts | 354° |
| 2026-04-21 01:44 | 25.04458 | -77.46438 | 23 ft | 5 kts | 83° |
| 2026-04-21 01:44 | 25.04488 | -77.46401 | 23 ft | 8 kts | 39° |
| 2026-04-21 01:44 | 25.04541 | -77.46347 | 23 ft | 9 kts | 48° |